Kaministiqua — CFN4612 — position and weather

sailwx.info

Track history (hours):
 
Tides and Currents Weather Stations Pressure Air Temp Water Temp Dewpoint Dewpoint Depression Visibility Wind Speed Wind Dir Waves Ship Positions

Kaministiqua

Last reported at 2015-Dec-20 08:22 UTC. Time now 2016-Feb-06 23:26 UTC.
Position N 45°56' W 083°53'.
Warning: this ship's position is 48 days out of date.

Length 223 m; draft 7 m.

Type: Cargo ship. MMSI: 316009457.

Date/timePositionNaut miles runAvg speedWind from/ knotsBaromVisibWave heightAir tempDewpointWater temp
2015-Dec-20 08:22N 45°56' W 083°53'265 5.4
2015-Dec-18 07:32N 43°02' W 079°13'5 5.5
2015-Dec-18 06:33N 43°07' W 079°12'1 0.7
2015-Dec-18 05:34N 43°08' W 079°12'0 0.2
2015-Dec-18 04:33N 43°08' W 079°12'1 0.8
2015-Dec-18 03:33N 43°09' W 079°12'1 1.2
2015-Dec-18 02:33N 43°10' W 079°12'2 1.6
2015-Dec-18 01:33N 43°12' W 079°12'1 1.4
2015-Dec-18 00:33N 43°13' W 079°13'1 0.7
2015-Dec-17 23:33N 43°14' W 079°13'3 3.2
2015-Dec-17 22:33N 43°17' W 079°14'10 9.9
2015-Dec-17 21:33N 43°24' W 079°04'12011.9
2015-Dec-17 11:29N 44°02' W 076°27'1111.2
2015-Dec-17 10:32N 44°11' W 076°19'117 7.1
2015-Dec-16 18:10N 45°14' W 074°00'5 7.8
2015-Dec-16 17:33N 45°18' W 073°56'2 1.6
2015-Dec-16 16:33N 45°19' W 073°55'2 1.5
2015-Dec-16 15:33N 45°20' W 073°54'9 9.2
2015-Dec-16 14:33N 45°25' W 073°42'5 5.0
2015-Dec-16 13:33N 45°24' W 073°35'1 1.5
2015-Dec-16 12:33N 45°24' W 073°33'  
2015-Dec-12 23:33N 44°08' W 076°20'0 0.0
2015-Dec-12 22:33N 44°08' W 076°20'0 0.0
2015-Dec-12 21:34N 44°08' W 076°20'0 0.0
2015-Dec-12 20:33N 44°08' W 076°20'0 0.0
2015-Dec-12 19:33N 44°08' W 076°20'0 0.0
2015-Dec-12 18:34N 44°08' W 076°20'0 0.0
2015-Dec-12 17:33N 44°08' W 076°20'0 0.0
2015-Dec-12 16:33N 44°08' W 076°20'0 0.0
2015-Dec-12 15:33N 44°08' W 076°20'0 0.0
2015-Dec-12 14:33N 44°08' W 076°20'0 0.0
2015-Dec-12 13:34N 44°08' W 076°20'0 0.0
2015-Dec-12 12:33N 44°08' W 076°20'0 0.0
2015-Dec-12 11:33N 44°08' W 076°20'0 0.0
2015-Dec-12 10:34N 44°08' W 076°20'0 0.0
2015-Dec-12 09:33N 44°08' W 076°20'0 0.0
2015-Dec-12 08:33N 44°08' W 076°20'0 0.0
2015-Dec-12 07:34N 44°08' W 076°20'0 0.0
2015-Dec-12 06:33N 44°08' W 076°20'0 0.0
2015-Dec-12 05:33N 44°08' W 076°20'0 0.0
2015-Dec-12 04:33N 44°08' W 076°20'0 0.0
2015-Dec-12 03:33N 44°08' W 076°20'0 0.0
2015-Dec-12 02:33N 44°08' W 076°20'0 0.0
2015-Dec-12 01:33N 44°08' W 076°20'0 0.0
2015-Dec-12 00:34N 44°08' W 076°20'0 0.0
2015-Dec-11 23:33N 44°08' W 076°20'9 7.5
2015-Dec-11 22:19N 44°01' W 076°28'10511.9
2015-Dec-11 13:29N 43°24' W 078°44'1112.2
2015-Dec-11 12:33N 43°21' W 078°59'1211.5
2015-Dec-11 11:34N 43°15' W 079°13'2 2.4
2015-Dec-11 10:33N 43°13' W 079°13'1 1.4
2015-Dec-11 09:33N 43°12' W 079°12'2 2.0
2015-Dec-11 08:33N 43°10' W 079°12'1 0.8
2015-Dec-11 07:33N 43°09' W 079°12'1 0.7
2015-Dec-11 06:33N 43°08' W 079°12'0 0.2
2015-Dec-11 05:33N 43°08' W 079°12'1 0.6
2015-Dec-11 04:33N 43°07' W 079°12'1 0.6
2015-Dec-11 03:33N 43°07' W 079°12'4 3.8
2015-Dec-11 02:26N 43°03' W 079°13'  
Track history (hours):
 
Tides and Currents Weather Stations Pressure Air Temp Water Temp Dewpoint Dewpoint Depression Visibility Wind Speed Wind Dir Waves Ship Positions

Kaministiqua

Last reported at 2015-Dec-20 08:22 UTC. Time now 2016-Feb-06 23:26 UTC.
Position N 45°56' W 083°53'.
Warning: this ship's position is 48 days out of date.

Length 223 m; draft 7 m.

Type: Cargo ship. MMSI: 316009457.

Date/timePositionNaut miles runAvg speedWind from/ knotsBaromVisibWave heightAir tempDewpointWater temp
2015-Dec-20 08:22N 45°56' W 083°53'265 5.4
2015-Dec-18 07:32N 43°02' W 079°13'5 5.5
2015-Dec-18 06:33N 43°07' W 079°12'1 0.7
2015-Dec-18 05:34N 43°08' W 079°12'0 0.2
2015-Dec-18 04:33N 43°08' W 079°12'1 0.8
2015-Dec-18 03:33N 43°09' W 079°12'1 1.2
2015-Dec-18 02:33N 43°10' W 079°12'2 1.6
2015-Dec-18 01:33N 43°12' W 079°12'1 1.4
2015-Dec-18 00:33N 43°13' W 079°13'1 0.7
2015-Dec-17 23:33N 43°14' W 079°13'3 3.2
2015-Dec-17 22:33N 43°17' W 079°14'10 9.9
2015-Dec-17 21:33N 43°24' W 079°04'12011.9
2015-Dec-17 11:29N 44°02' W 076°27'1111.2
2015-Dec-17 10:32N 44°11' W 076°19'117 7.1
2015-Dec-16 18:10N 45°14' W 074°00'5 7.8
2015-Dec-16 17:33N 45°18' W 073°56'2 1.6
2015-Dec-16 16:33N 45°19' W 073°55'2 1.5
2015-Dec-16 15:33N 45°20' W 073°54'9 9.2
2015-Dec-16 14:33N 45°25' W 073°42'5 5.0
2015-Dec-16 13:33N 45°24' W 073°35'1 1.5
2015-Dec-16 12:33N 45°24' W 073°33'  
2015-Dec-12 23:33N 44°08' W 076°20'0 0.0
2015-Dec-12 22:33N 44°08' W 076°20'0 0.0
2015-Dec-12 21:34N 44°08' W 076°20'0 0.0
2015-Dec-12 20:33N 44°08' W 076°20'0 0.0
2015-Dec-12 19:33N 44°08' W 076°20'0 0.0
2015-Dec-12 18:34N 44°08' W 076°20'0 0.0
2015-Dec-12 17:33N 44°08' W 076°20'0 0.0
2015-Dec-12 16:33N 44°08' W 076°20'0 0.0
2015-Dec-12 15:33N 44°08' W 076°20'0 0.0
2015-Dec-12 14:33N 44°08' W 076°20'0 0.0
2015-Dec-12 13:34N 44°08' W 076°20'0 0.0
2015-Dec-12 12:33N 44°08' W 076°20'0 0.0
2015-Dec-12 11:33N 44°08' W 076°20'0 0.0
2015-Dec-12 10:34N 44°08' W 076°20'0 0.0
2015-Dec-12 09:33N 44°08' W 076°20'0 0.0
2015-Dec-12 08:33N 44°08' W 076°20'0 0.0
2015-Dec-12 07:34N 44°08' W 076°20'0 0.0
2015-Dec-12 06:33N 44°08' W 076°20'0 0.0
2015-Dec-12 05:33N 44°08' W 076°20'0 0.0
2015-Dec-12 04:33N 44°08' W 076°20'0 0.0
2015-Dec-12 03:33N 44°08' W 076°20'0 0.0
2015-Dec-12 02:33N 44°08' W 076°20'0 0.0
2015-Dec-12 01:33N 44°08' W 076°20'0 0.0
2015-Dec-12 00:34N 44°08' W 076°20'0 0.0
2015-Dec-11 23:33N 44°08' W 076°20'9 7.5
2015-Dec-11 22:19N 44°01' W 076°28'10511.9
2015-Dec-11 13:29N 43°24' W 078°44'1112.2
2015-Dec-11 12:33N 43°21' W 078°59'1211.5
2015-Dec-11 11:34N 43°15' W 079°13'2 2.4
2015-Dec-11 10:33N 43°13' W 079°13'1 1.4
2015-Dec-11 09:33N 43°12' W 079°12'2 2.0
2015-Dec-11 08:33N 43°10' W 079°12'1 0.8
2015-Dec-11 07:33N 43°09' W 079°12'1 0.7
2015-Dec-11 06:33N 43°08' W 079°12'0 0.2
2015-Dec-11 05:33N 43°08' W 079°12'1 0.6
2015-Dec-11 04:33N 43°07' W 079°12'1 0.6
2015-Dec-11 03:33N 43°07' W 079°12'4 3.8
2015-Dec-11 02:26N 43°03' W 079°13'  

Dump ship's entire track history